createdAt,value
2019-02-02T00:01:49.778Z,99.90
2019-02-02T00:04:20.514Z,99.90
2019-02-02T00:06:51.227Z,99.90
2019-02-02T00:09:21.528Z,99.90
2019-02-02T00:11:51.873Z,99.90
2019-02-02T00:14:22.198Z,99.90
2019-02-02T00:16:52.521Z,99.90
2019-02-02T00:19:22.913Z,99.90
2019-02-02T00:21:53.233Z,99.90
2019-02-02T00:24:23.585Z,99.90
2019-02-02T00:26:53.903Z,99.90
2019-02-02T00:29:24.215Z,99.90
2019-02-02T00:31:54.568Z,99.90
2019-02-02T00:34:25.326Z,99.90
2019-02-02T00:36:55.647Z,99.90
2019-02-02T00:39:25.997Z,99.90
2019-02-02T00:41:56.369Z,99.90
2019-02-02T00:44:26.718Z,99.90
2019-02-02T00:46:57.017Z,99.90
2019-02-02T00:49:27.341Z,99.90
2019-02-02T00:51:57.721Z,99.90
2019-02-02T00:54:28.041Z,99.90
2019-02-02T00:56:58.417Z,99.90
2019-02-02T00:59:28.719Z,99.90
2019-02-02T01:01:59.078Z,99.90
2019-02-02T01:04:29.405Z,99.90
2019-02-02T01:06:59.774Z,99.90
2019-02-02T01:09:30.071Z,99.90
2019-02-02T01:12:00.397Z,99.90
2019-02-02T01:14:30.767Z,99.90
2019-02-02T01:17:01.053Z,99.90
2019-02-02T01:19:31.505Z,99.90
2019-02-02T01:22:01.827Z,99.90
2019-02-02T01:24:32.203Z,99.90
2019-02-02T01:27:02.502Z,99.90
2019-02-02T01:29:32.830Z,99.90
2019-02-02T01:32:03.135Z,99.90
2019-02-02T01:34:33.461Z,99.90
2019-02-02T01:37:03.754Z,99.90
2019-02-02T01:39:34.081Z,99.90
2019-02-02T01:42:04.404Z,99.90
2019-02-02T01:44:34.705Z,99.90
2019-02-02T01:47:05.056Z,99.90
2019-02-02T01:49:35.337Z,99.90
2019-02-02T01:52:05.658Z,99.90
2019-02-02T01:54:38.372Z,99.90
2019-02-02T01:57:07.973Z,99.90
2019-02-02T01:59:38.277Z,99.90
2019-02-02T02:02:08.585Z,99.90
2019-02-02T02:04:38.953Z,99.90
2019-02-02T02:07:09.281Z,99.90
2019-02-02T02:09:39.605Z,99.90
2019-02-02T02:12:09.907Z,99.90
2019-02-02T02:14:40.253Z,99.90
2019-02-02T02:17:10.569Z,99.90
2019-02-02T02:19:40.957Z,99.90
2019-02-02T02:22:11.291Z,99.90
2019-02-02T02:24:41.627Z,99.90
2019-02-02T02:27:11.947Z,99.90
2019-02-02T02:29:42.270Z,99.90
2019-02-02T02:32:12.560Z,99.90
2019-02-02T02:34:42.889Z,99.90
2019-02-02T02:37:13.194Z,99.90
2019-02-02T02:39:43.540Z,99.90
2019-02-02T02:42:15.001Z,99.90
2019-02-02T02:44:45.320Z,99.90
2019-02-02T02:47:15.629Z,99.90
2019-02-02T02:49:45.992Z,99.90
2019-02-02T02:52:16.293Z,99.90
2019-02-02T02:54:46.756Z,99.90
2019-02-02T02:57:17.067Z,99.90
2019-02-02T02:59:47.393Z,99.90
2019-02-02T03:02:17.765Z,99.90
2019-02-02T03:04:48.406Z,99.90
2019-02-02T03:07:19.574Z,99.70
2019-02-02T03:09:50.065Z,99.40
2019-02-02T03:12:20.373Z,99.00
2019-02-02T03:14:50.731Z,99.30
2019-02-02T03:17:22.101Z,99.20
2019-02-02T03:19:52.463Z,99.00
2019-02-02T03:22:22.814Z,99.10
2019-02-02T03:24:53.158Z,98.90
2019-02-02T03:27:23.445Z,98.80
2019-02-02T03:29:54.855Z,98.80
2019-02-02T03:32:25.198Z,98.70
2019-02-02T03:34:57.217Z,98.60
2019-02-02T03:37:27.457Z,98.10
2019-02-02T03:39:57.795Z,98.30
2019-02-02T03:42:28.120Z,98.20
2019-02-02T03:44:58.514Z,97.80
2019-02-02T03:47:28.789Z,97.80
2019-02-02T03:49:59.134Z,97.80
2019-02-02T03:52:29.461Z,97.60
2019-02-02T03:54:59.805Z,97.60
2019-02-02T03:57:30.202Z,97.60
2019-02-02T04:00:00.507Z,97.50
2019-02-02T04:02:30.816Z,97.20
2019-02-02T04:05:01.122Z,96.90
2019-02-02T04:07:31.509Z,97.00
2019-02-02T04:10:01.815Z,97.10
2019-02-02T04:12:32.129Z,97.00
2019-02-02T04:15:02.433Z,96.70
2019-02-02T04:17:32.729Z,96.80
2019-02-02T04:20:03.066Z,96.40
2019-02-02T04:22:35.646Z,96.50
2019-02-02T04:25:06.414Z,96.30
2019-02-02T04:27:37.057Z,96.20
2019-02-02T04:30:10.145Z,96.10
2019-02-02T04:32:40.433Z,96.00
2019-02-02T04:35:11.314Z,95.70
2019-02-02T04:37:41.573Z,95.70
2019-02-02T04:40:13.131Z,95.80
2019-02-02T04:42:44.594Z,95.80
2019-02-02T04:45:16.306Z,95.70
2019-02-02T04:47:46.913Z,95.30
2019-02-02T04:50:17.785Z,95.20
2019-02-02T04:52:48.131Z,95.30
2019-02-02T04:55:19.358Z,95.50
2019-02-02T04:57:50.725Z,95.40
2019-02-02T05:00:23.370Z,95.00
2019-02-02T05:02:53.715Z,95.00
2019-02-02T05:05:24.009Z,94.80
2019-02-02T05:07:54.333Z,94.70
2019-02-02T05:10:24.858Z,94.90
2019-02-02T05:12:55.144Z,95.00
2019-02-02T05:15:25.509Z,94.70
2019-02-02T05:17:55.801Z,94.70
2019-02-02T05:20:26.138Z,94.60
2019-02-02T05:22:56.494Z,94.80
2019-02-02T05:25:27.121Z,94.80
2019-02-02T05:27:57.445Z,94.80
2019-02-02T05:30:31.325Z,94.80
2019-02-02T05:33:02.733Z,94.80
2019-02-02T05:35:34.099Z,94.70
2019-02-02T05:38:04.569Z,94.70
2019-02-02T05:40:34.893Z,94.60
2019-02-02T05:43:05.371Z,94.80
2019-02-02T05:45:35.689Z,94.60
2019-02-02T05:48:06.054Z,94.60
2019-02-02T05:50:36.389Z,95.00
2019-02-02T05:53:06.743Z,94.50
2019-02-02T05:55:37.029Z,94.40
2019-02-02T05:58:07.389Z,94.50
2019-02-02T06:00:49.481Z,94.60
2019-02-02T06:03:19.803Z,94.80
2019-02-02T06:05:51.604Z,94.70
2019-02-02T06:08:21.939Z,94.50
2019-02-02T06:10:52.299Z,94.50
2019-02-02T06:13:22.615Z,94.30
2019-02-02T06:15:52.939Z,94.50
2019-02-02T06:18:23.290Z,94.30
2019-02-02T06:20:53.597Z,94.10
2019-02-02T06:23:23.933Z,94.00
2019-02-02T06:25:54.306Z,94.20
2019-02-02T06:28:24.781Z,94.20
2019-02-02T06:30:55.125Z,94.20
2019-02-02T06:33:25.469Z,94.20
2019-02-02T06:35:55.969Z,94.00
2019-02-02T06:38:26.309Z,94.20
2019-02-02T06:40:56.610Z,94.10
2019-02-02T06:43:30.138Z,93.80
2019-02-02T06:45:59.041Z,93.80
2019-02-02T06:48:29.367Z,93.80
2019-02-02T06:51:00.625Z,94.20
2019-02-02T06:53:30.949Z,94.00
2019-02-02T06:56:01.315Z,94.00
2019-02-02T06:58:31.657Z,94.10
2019-02-02T07:01:01.963Z,93.90
2019-02-02T07:03:32.314Z,94.30
2019-02-02T07:06:02.610Z,93.80
2019-02-02T07:08:32.953Z,93.50
2019-02-02T07:11:03.265Z,93.40
2019-02-02T07:13:35.978Z,93.30
2019-02-02T07:16:05.507Z,93.20
2019-02-02T07:18:35.848Z,93.30
2019-02-02T07:21:06.213Z,93.20
2019-02-02T07:23:36.711Z,93.40
2019-02-02T07:26:07.497Z,93.50
2019-02-02T07:28:37.899Z,93.50
2019-02-02T07:31:08.289Z,93.50
2019-02-02T07:33:38.654Z,93.50
2019-02-02T07:36:09.477Z,93.40
2019-02-02T07:38:39.856Z,93.50
2019-02-02T07:41:10.185Z,93.30
2019-02-02T07:43:40.543Z,93.50
2019-02-02T07:46:14.893Z,93.40
2019-02-02T07:48:43.931Z,93.30
2019-02-02T07:51:14.237Z,93.50
2019-02-02T07:53:44.561Z,93.60
2019-02-02T07:56:14.913Z,93.60
2019-02-02T07:58:45.221Z,93.20
2019-02-02T08:01:15.575Z,93.10
2019-02-02T08:03:45.905Z,93.20
2019-02-02T08:06:17.921Z,93.20
2019-02-02T08:08:48.222Z,93.10
2019-02-02T08:11:18.557Z,93.10
2019-02-02T08:13:48.895Z,93.10
2019-02-02T08:16:19.287Z,93.20
2019-02-02T08:18:49.558Z,93.20
2019-02-02T08:21:19.903Z,93.20
2019-02-02T08:23:50.235Z,93.20
2019-02-02T08:26:20.580Z,93.10
2019-02-02T08:28:50.935Z,93.00
2019-02-02T08:31:21.242Z,93.00
2019-02-02T08:33:51.573Z,93.10
2019-02-02T08:36:23.085Z,93.10
2019-02-02T08:38:53.511Z,93.00
2019-02-02T08:41:23.837Z,93.10
2019-02-02T08:43:54.189Z,93.00
2019-02-02T08:46:24.482Z,93.10
2019-02-02T08:48:54.847Z,93.00
2019-02-02T08:51:25.169Z,93.00
2019-02-02T08:53:55.521Z,93.00
2019-02-02T08:56:25.887Z,93.10
2019-02-02T08:58:56.215Z,93.00
2019-02-02T09:01:26.550Z,92.90
2019-02-02T09:03:56.884Z,92.90
2019-02-02T09:06:38.317Z,92.70
2019-02-02T09:09:00.114Z,92.70
2019-02-02T09:11:30.481Z,92.70
2019-02-02T09:14:00.845Z,92.70
2019-02-02T09:16:31.201Z,92.60
2019-02-02T09:19:01.534Z,92.50
2019-02-02T09:21:31.876Z,92.40
2019-02-02T09:24:02.224Z,92.40
2019-02-02T09:26:32.591Z,92.30
2019-02-02T09:29:03.001Z,92.40
2019-02-02T09:31:33.347Z,92.50
2019-02-02T09:34:03.723Z,92.30
2019-02-02T09:36:35.657Z,92.10
2019-02-02T09:39:08.481Z,92.00
2019-02-02T09:41:40.760Z,92.00
2019-02-02T09:44:12.323Z,92.10
2019-02-02T09:46:42.763Z,92.20
2019-02-02T09:49:13.113Z,92.10
2019-02-02T09:51:43.486Z,92.30
2019-02-02T09:54:13.857Z,92.30
2019-02-02T09:56:44.221Z,92.40
2019-02-02T09:59:14.739Z,92.40
2019-02-02T10:01:45.097Z,92.40
2019-02-02T10:04:15.422Z,92.40
2019-02-02T10:06:47.230Z,92.40
2019-02-02T10:09:17.609Z,92.20
2019-02-02T10:11:47.937Z,92.30
2019-02-02T10:14:19.338Z,92.20
2019-02-02T10:16:49.809Z,92.30
2019-02-02T10:19:20.142Z,92.30
2019-02-02T10:21:50.498Z,92.30
2019-02-02T10:24:20.835Z,92.20
2019-02-02T10:26:51.267Z,92.30
2019-02-02T10:29:21.645Z,92.30
2019-02-02T10:31:52.015Z,92.40
2019-02-02T10:34:22.343Z,92.40
2019-02-02T10:36:53.885Z,92.20
2019-02-02T10:39:24.295Z,92.30
2019-02-02T10:41:54.591Z,92.10
2019-02-02T10:44:24.921Z,92.10
2019-02-02T10:46:55.268Z,92.10
2019-02-02T10:49:25.671Z,92.00
2019-02-02T10:51:56.042Z,92.00
2019-02-02T10:54:26.479Z,92.00
2019-02-02T10:56:56.873Z,92.10
2019-02-02T10:59:27.190Z,92.00
2019-02-02T11:01:57.559Z,91.80
2019-02-02T11:04:27.873Z,91.80
2019-02-02T11:06:58.798Z,91.70
2019-02-02T11:09:29.100Z,91.50
2019-02-02T11:11:59.512Z,91.60
2019-02-02T11:14:29.787Z,91.60
2019-02-02T11:17:00.323Z,91.50
2019-02-02T11:19:30.727Z,91.40
2019-02-02T11:22:01.057Z,91.50
2019-02-02T11:24:31.521Z,91.30
2019-02-02T11:27:01.903Z,91.30
2019-02-02T11:29:32.620Z,91.40
2019-02-02T11:32:03.306Z,91.20
2019-02-02T11:34:33.669Z,91.20
2019-02-02T11:37:04.273Z,91.20
2019-02-02T11:39:34.611Z,90.90
2019-02-02T11:42:05.005Z,90.60
2019-02-02T11:44:35.374Z,90.60
2019-02-02T11:47:05.769Z,90.60
2019-02-02T11:49:36.118Z,90.00
2019-02-02T11:52:06.564Z,89.70
2019-02-02T11:54:36.889Z,89.70
2019-02-02T11:57:07.342Z,89.70
2019-02-02T11:59:37.782Z,89.30
2019-02-02T12:02:14.640Z,88.40
2019-02-02T12:04:40.074Z,87.50
2019-02-02T12:07:11.911Z,86.90
2019-02-02T12:09:42.253Z,86.20
2019-02-02T12:12:12.593Z,86.20
2019-02-02T12:14:42.955Z,85.80
2019-02-02T12:17:13.361Z,85.70
2019-02-02T12:19:43.736Z,85.10
2019-02-02T12:22:14.061Z,85.40
2019-02-02T12:24:44.455Z,84.80
2019-02-02T12:27:14.809Z,84.40
2019-02-02T12:29:45.197Z,83.70
2019-02-02T12:32:25.853Z,84.00
2019-02-02T12:34:47.645Z,83.20
2019-02-02T12:37:18.679Z,82.80
2019-02-02T12:39:49.014Z,82.50
2019-02-02T12:42:19.358Z,82.60
2019-02-02T12:44:49.733Z,82.60
2019-02-02T12:47:20.881Z,82.90
2019-02-02T12:49:53.300Z,83.40
2019-02-02T12:52:25.429Z,83.90
2019-02-02T12:54:55.623Z,84.00
2019-02-02T12:57:25.913Z,84.00
2019-02-02T12:59:56.315Z,84.20
2019-02-02T13:02:37.484Z,83.80
2019-02-02T13:04:58.601Z,84.00
2019-02-02T13:07:30.359Z,83.80
2019-02-02T13:10:00.750Z,83.90
2019-02-02T13:12:31.573Z,84.10
2019-02-02T13:15:01.937Z,84.00
2019-02-02T13:17:33.335Z,83.60
2019-02-02T13:20:03.933Z,83.50
2019-02-02T13:22:34.619Z,84.10
2019-02-02T13:25:06.839Z,84.00
2019-02-02T13:27:37.173Z,82.90
2019-02-02T13:30:10.929Z,82.30
2019-02-02T13:32:49.445Z,82.20
2019-02-02T13:35:14.347Z,81.50
2019-02-02T13:37:46.069Z,80.70
2019-02-02T13:40:18.154Z,81.30
2019-02-02T13:42:49.036Z,81.10
2019-02-02T13:45:20.107Z,81.00
2019-02-02T13:47:50.613Z,81.20
2019-02-02T13:50:22.466Z,81.40
2019-02-02T13:52:52.961Z,81.60
2019-02-02T13:55:23.815Z,81.90
2019-02-02T13:57:54.164Z,82.10
2019-02-02T14:00:27.177Z,82.70
2019-02-02T14:03:02.744Z,82.90
2019-02-02T14:05:30.333Z,83.10
2019-02-02T14:08:01.170Z,83.70
2019-02-02T14:10:32.942Z,84.00
2019-02-02T14:13:03.292Z,84.20
2019-02-02T14:15:33.637Z,84.30
2019-02-02T14:18:03.955Z,84.40
2019-02-02T14:20:34.306Z,84.60
2019-02-02T14:23:04.649Z,84.80
2019-02-02T14:25:35.053Z,85.10
2019-02-02T14:28:05.397Z,85.50
2019-02-02T14:30:35.934Z,85.60
2019-02-02T14:33:14.155Z,85.80
2019-02-02T14:35:39.397Z,86.00
2019-02-02T14:38:10.237Z,86.10
2019-02-02T14:40:40.609Z,86.30
2019-02-02T14:43:10.999Z,86.50
2019-02-02T14:45:41.412Z,86.50
2019-02-02T14:48:11.819Z,86.60
2019-02-02T14:50:42.227Z,86.80
2019-02-02T14:53:12.566Z,87.00
2019-02-02T14:55:45.845Z,87.30
2019-02-02T14:58:14.923Z,87.20
2019-02-02T15:00:45.253Z,87.40
2019-02-02T15:03:25.565Z,87.50
2019-02-02T15:05:47.599Z,87.60
2019-02-02T15:08:18.515Z,87.70
2019-02-02T15:10:48.840Z,88.00
2019-02-02T15:13:19.189Z,88.20
2019-02-02T15:15:49.510Z,88.50
2019-02-02T15:18:19.843Z,88.80
2019-02-02T15:20:50.213Z,88.80
2019-02-02T15:23:20.673Z,89.10
2019-02-02T15:25:51.100Z,89.20
2019-02-02T15:28:21.439Z,89.00
2019-02-02T15:30:51.809Z,89.00
2019-02-02T15:33:22.148Z,88.80
2019-02-02T15:35:52.502Z,88.50
2019-02-02T15:38:23.910Z,88.10
2019-02-02T15:40:59.099Z,88.10
2019-02-02T15:43:26.249Z,88.00
2019-02-02T15:45:56.566Z,87.60
2019-02-02T15:48:27.281Z,87.80
2019-02-02T15:50:57.583Z,87.80
2019-02-02T15:53:27.969Z,87.80
2019-02-02T15:55:58.332Z,87.60
2019-02-02T15:58:28.636Z,87.50
2019-02-02T16:00:59.085Z,87.40
2019-02-02T16:03:29.402Z,87.50
2019-02-02T16:05:59.775Z,87.60
2019-02-02T16:08:30.957Z,87.50
2019-02-02T16:11:01.388Z,87.50
2019-02-02T16:13:32.081Z,87.00
2019-02-02T16:16:02.436Z,87.30
2019-02-02T16:18:32.737Z,87.10
2019-02-02T16:21:03.105Z,87.20
2019-02-02T16:23:33.436Z,87.40
2019-02-02T16:26:03.810Z,87.30
2019-02-02T16:28:34.213Z,87.10
2019-02-02T16:31:04.545Z,87.30
2019-02-02T16:33:34.841Z,87.20
2019-02-02T16:36:05.469Z,87.10
2019-02-02T16:38:37.079Z,87.20
2019-02-02T16:41:07.641Z,87.30
2019-02-02T16:43:37.975Z,87.40
2019-02-02T16:46:08.465Z,87.30
2019-02-02T16:48:38.758Z,86.90
2019-02-02T16:51:09.114Z,87.10
2019-02-02T16:53:39.439Z,87.30
2019-02-02T16:56:09.848Z,87.10
2019-02-02T16:58:40.197Z,87.20
2019-02-02T17:01:10.553Z,87.40
2019-02-02T17:03:40.926Z,87.30
2019-02-02T17:06:11.327Z,87.10
2019-02-02T17:08:42.981Z,87.20
2019-02-02T17:11:13.505Z,87.20
2019-02-02T17:13:43.789Z,87.00
2019-02-02T17:16:14.144Z,87.20
2019-02-02T17:18:44.589Z,87.10
2019-02-02T17:21:14.965Z,86.90
2019-02-02T17:23:45.313Z,86.90
2019-02-02T17:26:15.689Z,86.90
2019-02-02T17:28:46.019Z,86.90
2019-02-02T17:31:16.357Z,86.50
2019-02-02T17:33:46.777Z,86.30
2019-02-02T17:36:17.304Z,86.80
2019-02-02T17:38:48.185Z,86.90
2019-02-02T17:41:19.657Z,86.90
2019-02-02T17:43:50.063Z,86.90
2019-02-02T17:46:20.465Z,87.10
2019-02-02T17:48:51.033Z,87.30
2019-02-02T17:51:21.425Z,87.50
2019-02-02T17:53:51.979Z,87.70
2019-02-02T17:56:22.409Z,88.00
2019-02-02T17:58:52.761Z,88.00
2019-02-02T18:01:23.105Z,87.80
2019-02-02T18:03:53.463Z,87.80
2019-02-02T18:06:23.889Z,87.90
2019-02-02T18:08:54.930Z,87.80
2019-02-02T18:11:25.299Z,88.10
2019-02-02T18:13:55.626Z,88.20
2019-02-02T18:16:25.957Z,88.40
2019-02-02T18:18:56.299Z,88.40
2019-02-02T18:21:26.640Z,88.50
2019-02-02T18:23:57.106Z,88.60
2019-02-02T18:26:27.391Z,88.50
2019-02-02T18:28:57.738Z,88.40
2019-02-02T18:31:28.155Z,88.40
2019-02-02T18:33:58.541Z,88.30
2019-02-02T18:36:28.871Z,88.20
2019-02-02T18:39:00.487Z,88.20
2019-02-02T18:41:30.863Z,88.00
2019-02-02T18:44:01.227Z,88.10
2019-02-02T18:46:32.648Z,88.10
2019-02-02T18:49:03.014Z,88.10
2019-02-02T18:51:33.361Z,88.40
2019-02-02T18:54:04.301Z,88.40
2019-02-02T18:56:34.641Z,88.50
2019-02-02T18:59:05.283Z,88.40
2019-02-02T19:01:35.635Z,88.40
2019-02-02T19:04:06.081Z,88.60
2019-02-02T19:06:36.465Z,88.30
2019-02-02T19:09:08.909Z,88.40
2019-02-02T19:11:39.781Z,88.50
2019-02-02T19:14:10.109Z,88.60
2019-02-02T19:16:40.463Z,88.70
2019-02-02T19:19:10.821Z,89.00
2019-02-02T19:21:41.185Z,88.70
2019-02-02T19:24:11.545Z,88.80
2019-02-02T19:26:41.947Z,88.80
2019-02-02T19:29:12.313Z,88.70
2019-02-02T19:31:42.704Z,88.90
2019-02-02T19:34:13.045Z,89.00
2019-02-02T19:36:43.420Z,89.10
2019-02-02T19:39:13.975Z,89.10
2019-02-02T19:41:44.335Z,89.40
2019-02-02T19:44:14.838Z,89.30
2019-02-02T19:46:45.165Z,89.40
2019-02-02T19:49:15.499Z,89.70
2019-02-02T19:51:45.852Z,89.90
2019-02-02T19:54:16.213Z,90.00
2019-02-02T19:56:46.584Z,90.00
2019-02-02T19:59:16.961Z,90.10
2019-02-02T20:01:47.741Z,90.20
2019-02-02T20:04:21.247Z,90.20
2019-02-02T20:06:51.611Z,90.20
2019-02-02T20:09:22.951Z,90.20
2019-02-02T20:11:53.293Z,90.30
2019-02-02T20:14:23.684Z,90.30
2019-02-02T20:16:54.521Z,90.40
2019-02-02T20:19:24.849Z,90.40
2019-02-02T20:21:55.180Z,90.40
2019-02-02T20:24:25.561Z,90.80
2019-02-02T20:26:55.918Z,90.50
2019-02-02T20:29:26.301Z,90.70
2019-02-02T20:31:56.645Z,90.70
2019-02-02T20:34:27.034Z,90.70
2019-02-02T20:36:57.431Z,90.70
2019-02-02T20:39:27.911Z,90.70
2019-02-02T20:42:00.013Z,90.80
2019-02-02T20:44:30.288Z,90.80
2019-02-02T20:47:03.072Z,90.80
2019-02-02T20:49:32.698Z,90.80
2019-02-02T20:52:03.046Z,90.90
2019-02-02T20:54:33.403Z,91.00
2019-02-02T20:57:03.784Z,90.90
2019-02-02T20:59:34.149Z,90.80
2019-02-02T21:02:04.524Z,90.90
2019-02-02T21:04:35.837Z,91.00
2019-02-02T21:07:06.185Z,91.00
2019-02-02T21:09:37.881Z,91.10
2019-02-02T21:12:08.262Z,91.20
2019-02-02T21:14:38.575Z,91.20
2019-02-02T21:17:09.376Z,91.30
2019-02-02T21:19:39.748Z,91.30
2019-02-02T21:22:10.129Z,91.30
2019-02-02T21:24:41.593Z,91.40
2019-02-02T21:27:12.315Z,91.40
2019-02-02T21:29:42.985Z,91.40
2019-02-02T21:32:13.305Z,91.50
2019-02-02T21:34:43.688Z,91.50
2019-02-02T21:37:14.057Z,91.40
2019-02-02T21:39:44.453Z,91.50
2019-02-02T21:42:15.157Z,91.60
2019-02-02T21:44:45.571Z,91.60
2019-02-02T21:47:15.951Z,91.60
2019-02-02T21:49:46.258Z,91.60
2019-02-02T21:52:16.974Z,91.60
2019-02-02T21:54:47.516Z,91.60
2019-02-02T21:57:17.898Z,91.60
2019-02-02T22:00:10.213Z,91.60
2019-02-02T22:02:40.940Z,91.60
2019-02-02T22:05:11.327Z,91.60
2019-02-02T22:07:41.839Z,91.70
2019-02-02T22:10:12.506Z,91.70
2019-02-02T22:12:44.606Z,91.70
2019-02-02T22:15:18.240Z,91.80
2019-02-02T22:17:48.965Z,91.80
2019-02-02T22:20:20.677Z,91.80
2019-02-02T22:22:52.123Z,91.80
2019-02-02T22:25:24.549Z,91.80
2019-02-02T22:27:54.931Z,91.80
2019-02-02T22:30:29.929Z,91.80
2019-02-02T22:33:00.315Z,91.80
2019-02-02T22:35:30.681Z,91.90
2019-02-02T22:38:01.343Z,91.90
2019-02-02T22:40:31.683Z,91.80
2019-02-02T22:43:02.056Z,91.90
2019-02-02T22:45:32.575Z,92.00
2019-02-02T22:48:02.947Z,92.00
2019-02-02T22:50:33.623Z,92.00
2019-02-02T22:53:03.994Z,92.00
2019-02-02T22:55:34.345Z,92.20
2019-02-02T22:58:04.881Z,92.00
2019-02-02T23:01:00.146Z,92.00
2019-02-02T23:03:34.063Z,92.10
2019-02-02T23:06:15.097Z,92.00
2019-02-02T23:09:18.724Z,92.10
2019-02-02T23:12:39.858Z,92.10
2019-02-02T23:15:44.042Z,92.00
2019-02-02T23:18:14.431Z,92.10
2019-02-02T23:20:44.754Z,92.20
2019-02-02T23:23:15.098Z,92.20
2019-02-02T23:25:45.536Z,92.20
2019-02-02T23:28:15.897Z,92.20
2019-02-02T23:30:46.319Z,92.20
2019-02-02T23:33:16.787Z,92.10
2019-02-02T23:35:47.181Z,92.10
2019-02-02T23:38:17.697Z,92.20
2019-02-02T23:40:48.057Z,92.30
2019-02-02T23:43:19.848Z,92.30
2019-02-02T23:45:50.278Z,92.30
2019-02-02T23:48:20.616Z,92.30
2019-02-02T23:50:50.984Z,92.30
2019-02-02T23:53:21.642Z,92.30
2019-02-02T23:55:52.005Z,92.40
2019-02-02T23:58:22.327Z,92.40
